Hightstown, New Jersey
Current Conditions -  °F | °C
As of 12:53 AM on Monday 22 Dec 2014 (Local Time) from KTTN Reporting Station
Overcast Overcast  
Wind Chill: 33°   Ceiling: 2300
Heat Index: 33°   Visibility: 10mi
Dew Point: 24°   Wind: 0mph
Humidity: 70%   Direction: NA
Pressure: 30.31"   Gusts: NA
Location:  40.27°N, 74.52°W
Report Text: KTTN 220553Z AUTO 00000KT 10SM OVC023 01/M04 A3031 RMK AO2 SLP260 T00061044 10011 21006 58005
Loading
Personal Weather Stations






























Interactive Weather Map New forecast layout! Learn more

10-Day Weather Forecast

Advertisements
Track Severe Weather on mobile